Time;durP1;ratioP1;P1;durP2;ratioP2;P2;SDS_P1;SDS_P2;PMS_P1;PMS_P2;Temp;Humidity;BMP_temperature;BMP_pressure;BME280_temperature;BME280_humidity;BME280_pressure;Samples;Min_cycle;Max_cycle;Signal;HPM_P1;HPM_P2
2024/03/14 00:01:08;;;;;;;9.30;8.80;;;11.00;18.50;;;;;;5057128;28;20578;-80
2024/03/14 00:03:37;;;;;;;8.67;8.27;;;10.90;99.90;;;;;;5056910;28;21061;-83
2024/03/14 00:06:06;;;;;;;8.77;8.37;;;10.90;99.90;;;;;;5073631;28;20446;-82
2024/03/14 00:08:35;;;;;;;9.00;8.60;;;10.80;1.00;;;;;;5063332;28;20465;-83
2024/03/14 00:11:05;;;;;;;8.60;8.10;;;10.80;99.90;;;;;;5055890;28;20485;-82
2024/03/14 00:13:34;;;;;;;9.30;8.80;;;10.80;1.00;;;;;;5061014;28;20452;-84
2024/03/14 00:16:03;;;;;;;8.10;7.80;;;10.80;99.90;;;;;;5055080;28;20466;-83
2024/03/14 00:18:32;;;;;;;8.53;8.23;;;10.70;1.00;;;;;;5059773;28;20460;-83
2024/03/14 00:21:09;;;;;;;8.33;8.03;;;10.70;99.90;;;;;;5045034;28;20520;-81
2024/03/14 00:23:38;;;;;;;9.10;8.73;;;10.60;1.00;;;;;;5060713;28;20479;-81
2024/03/14 00:26:08;;;;;;;8.10;7.80;;;10.50;1.00;;;;;;5056864;28;20463;-83
2024/03/14 00:28:39;;;;;;;8.70;8.23;;;10.50;99.90;;;;;;5062257;28;20461;-80
2024/03/14 00:31:07;;;;;;;8.80;8.30;;;10.50;99.90;;;;;;5057337;28;20486;-82
2024/03/14 00:33:36;;;;;;;8.50;8.00;;;10.50;1.00;;;;;;5058000;28;20458;-82
2024/03/14 00:36:04;;;;;;;8.83;8.13;;;10.60;99.90;;;;;;5056118;28;20465;-81
2024/03/14 00:38:33;;;;;;;7.50;7.20;;;10.60;1.00;;;;;;5055786;28;20469;-83
2024/03/14 00:41:03;;;;;;;7.90;7.50;;;10.60;99.90;;;;;;5049724;28;20496;-82
2024/03/14 00:43:33;;;;;;;7.30;7.00;;;10.60;89.60;;;;;;5061695;28;20484;-80
2024/03/14 00:46:01;;;;;;;7.90;7.47;;;10.60;1.00;;;;;;5062854;28;21050;-82
2024/03/14 00:48:32;;;;;;;7.73;7.23;;;10.60;1.00;;;;;;5057326;28;20457;-81
2024/03/14 00:51:01;;;;;;;8.97;8.57;;;10.60;99.90;;;;;;5055087;28;21010;-81
2024/03/14 00:53:30;;;;;;;7.20;6.90;;;10.60;1.00;;;;;;5058800;28;20460;-83
2024/03/14 00:56:01;;;;;;;7.53;7.23;;;10.60;99.90;;;;;;5058732;28;20459;-82
2024/03/14 00:58:29;;;;;;;8.50;8.00;;;10.60;99.90;;;;;;5055632;28;20458;-80
2024/03/14 01:00:57;;;;;;;8.40;8.00;;;10.50;1.00;;;;;;5056173;28;20474;-82
2024/03/14 01:03:26;;;;;;;8.10;7.70;;;10.60;99.90;;;;;;5053824;28;20526;-82
2024/03/14 01:05:55;;;;;;;9.03;8.30;;;10.50;1.00;;;;;;5053454;28;20486;-82
2024/03/14 01:08:23;;;;;;;8.17;7.77;;;10.50;99.90;;;;;;5053652;28;20463;-81
2024/03/14 01:10:51;;;;;;;8.90;8.27;;;10.40;99.90;;;;;;5058093;28;20487;-83
2024/03/14 01:13:21;;;;;;;8.77;8.30;;;10.40;99.90;;;;;;5053785;28;20503;-82
2024/03/14 01:15:49;;;;;;;8.80;8.40;;;10.40;99.90;;;;;;5060817;28;20442;-83
2024/03/14 01:18:17;;;;;;;8.47;8.10;;;10.40;99.90;;;;;;5053464;28;20478;-83
2024/03/14 01:20:48;;;;;;;8.60;8.03;;;10.40;99.90;;;;;;5055634;28;20489;-83
2024/03/14 01:23:17;;;;;;;8.33;7.93;;;10.30;48.60;;;;;;5052110;28;20454;-82
2024/03/14 01:25:45;;;;;;;8.10;7.70;;;10.30;99.90;;;;;;5057606;28;20451;-81
2024/03/14 01:28:13;;;;;;;8.67;8.17;;;10.30;1.00;;;;;;5057568;28;21095;-82
2024/03/14 01:30:42;;;;;;;9.37;8.87;;;10.30;1.00;;;;;;5057406;28;20474;-82
2024/03/14 01:33:11;;;;;;;8.87;8.37;;;10.20;1.00;;;;;;5040287;28;20468;-84
2024/03/14 01:35:39;;;;;;;8.10;7.63;;;10.20;1.00;;;;;;5052359;28;20492;-82
2024/03/14 01:38:08;;;;;;;8.30;7.97;;;10.20;99.90;;;;;;5051568;28;20451;-81
2024/03/14 01:40:36;;;;;;;8.37;7.97;;;10.10;1.00;;;;;;5039772;28;20527;-80
2024/03/14 01:43:04;;;;;;;8.10;7.70;;;10.10;1.00;;;;;;5054666;28;20462;-80
2024/03/14 01:45:33;;;;;;;8.13;7.63;;;10.00;1.00;;;;;;5057188;28;20482;-83
2024/03/14 01:48:01;;;;;;;8.80;8.30;;;10.00;43.50;;;;;;5055351;28;21054;-82
2024/03/14 01:50:30;;;;;;;8.20;7.80;;;10.00;1.00;;;;;;5055486;28;20483;-80
2024/03/14 01:52:59;;;;;;;8.63;8.13;;;10.10;99.90;;;;;;5049420;28;20442;-82
2024/03/14 01:55:28;;;;;;;8.83;8.13;;;10.00;99.90;;;;;;5049911;28;20475;-81
2024/03/14 01:57:57;;;;;;;8.90;8.30;;;10.00;1.00;;;;;;5052429;28;20971;-80
2024/03/14 02:00:29;;;;;;;8.83;8.33;;;10.00;99.90;;;;;;5055342;28;21107;-81
2024/03/14 02:02:57;;;;;;;8.50;7.90;;;10.10;1.00;;;;;;5056046;28;20441;-82
2024/03/14 02:05:26;;;;;;;8.40;7.90;;;10.10;1.00;;;;;;5053229;28;20799;-80
2024/03/14 02:07:54;;;;;;;8.83;8.33;;;10.10;1.00;;;;;;5053290;28;20452;-81
2024/03/14 02:10:25;;;;;;;8.20;7.67;;;10.00;99.90;;;;;;5069180;28;20543;-80
2024/03/14 02:12:54;;;;;;;7.87;7.47;;;9.90;1.00;;;;;;5053868;28;20455;-82
2024/03/14 02:15:23;;;;;;;9.17;8.40;;;10.00;99.90;;;;;;5055332;28;20461;-80
2024/03/14 02:17:52;;;;;;;8.93;8.33;;;10.00;1.00;;;;;;5057023;28;20454;-82
2024/03/14 02:20:21;;;;;;;9.37;8.83;;;10.00;99.90;;;;;;5069455;28;20476;-81
2024/03/14 02:22:49;;;;;;;10.47;9.77;;;10.10;99.90;;;;;;5034074;28;20450;-82
2024/03/14 02:25:18;;;;;;;9.60;9.00;;;10.10;99.90;;;;;;5072034;28;20644;-81
2024/03/14 02:27:46;;;;;;;11.40;10.60;;;10.10;99.90;;;;;;5051063;28;20470;-80
2024/03/14 02:30:14;;;;;;;8.70;8.23;;;10.10;1.00;;;;;;5052453;28;20483;-81
2024/03/14 02:32:43;;;;;;;9.77;9.27;;;10.10;1.00;;;;;;5055392;28;20485;-79
2024/03/14 02:35:11;;;;;;;10.67;9.87;;;10.10;99.90;;;;;;5050865;28;20486;-82
2024/03/14 02:37:40;;;;;;;9.90;9.20;;;10.10;1.00;;;;;;5055699;28;20458;-80
2024/03/14 02:40:11;;;;;;;10.77;10.07;;;10.00;99.90;;;;;;5061130;28;20493;-81
2024/03/14 02:42:39;;;;;;;10.47;9.80;;;10.00;1.00;;;;;;5058962;28;21042;-81
2024/03/14 02:45:08;;;;;;;9.30;8.80;;;10.00;99.90;;;;;;5059255;28;20449;-81
2024/03/14 02:47:37;;;;;;;9.53;8.93;;;10.00;26.70;;;;;;5054952;28;20454;-81
2024/03/14 02:50:08;;;;;;;10.80;9.97;;;10.00;86.30;;;;;;5076333;28;20499;-82
2024/03/14 02:52:37;;;;;;;9.67;9.07;;;10.00;99.90;;;;;;5056875;28;20471;-83
2024/03/14 02:55:07;;;;;;;9.57;8.87;;;9.90;99.90;;;;;;5053552;28;20469;-80
2024/03/14 02:57:36;;;;;;;8.73;8.23;;;10.00;99.90;;;;;;5052436;28;20458;-80
2024/03/14 03:00:10;;;;;;;8.53;8.10;;;9.80;1.00;;;;;;5051692;28;21052;-81
2024/03/14 03:02:41;;;;;;;9.20;8.43;;;9.80;1.00;;;;;;5054390;28;20491;-82
2024/03/14 03:05:10;;;;;;;8.47;8.07;;;9.70;1.00;;;;;;5054513;28;20485;-82
2024/03/14 03:07:38;;;;;;;8.40;7.90;;;9.70;99.90;;;;;;5050986;28;20476;-79
2024/03/14 03:10:07;;;;;;;8.70;7.97;;;9.70;99.90;;;;;;5050839;28;20525;-80
2024/03/14 03:12:39;;;;;;;8.00;7.40;;;9.70;99.90;;;;;;5048366;28;20902;-80
2024/03/14 03:15:09;;;;;;;7.93;7.60;;;9.70;99.90;;;;;;5053560;28;20459;-81
2024/03/14 03:17:39;;;;;;;7.90;7.50;;;9.80;19.20;;;;;;5055259;28;21012;-82
2024/03/14 03:20:11;;;;;;;7.53;7.13;;;9.70;1.00;;;;;;5054145;28;20469;-81
2024/03/14 03:25:26;;;;;;;7.73;7.30;;;9.70;1.00;;;;;;5063489;28;20499;-82
2024/03/14 03:27:54;;;;;;;7.70;7.30;;;9.70;1.00;;;;;;5061049;28;20453;-81
2024/03/14 03:30:23;;;;;;;7.97;7.47;;;9.70;99.90;;;;;;5062450;28;21759;-81
2024/03/14 03:32:51;;;;;;;7.37;6.93;;;9.60;1.00;;;;;;5054976;28;21398;-80
2024/03/14 03:35:21;;;;;;;7.50;7.10;;;9.50;1.00;;;;;;5058993;28;20555;-81
2024/03/14 03:37:52;;;;;;;8.60;8.10;;;9.50;1.00;;;;;;5058416;28;20464;-81
2024/03/14 03:40:22;;;;;;;7.73;7.33;;;9.60;1.00;;;;;;5063698;28;20468;-82
2024/03/14 03:42:52;;;;;;;7.40;7.00;;;9.60;1.00;;;;;;5049346;28;20454;-80
2024/03/14 03:45:21;;;;;;;7.63;7.13;;;9.60;1.00;;;;;;5066673;28;20460;-79
2024/03/14 03:47:50;;;;;;;7.80;7.30;;;9.60;1.00;;;;;;5056683;28;20493;-81
2024/03/14 03:50:18;;;;;;;6.83;6.40;;;9.50;99.90;;;;;;5058247;28;20478;-82
2024/03/14 03:52:47;;;;;;;9.20;8.50;;;9.40;99.90;;;;;;5060684;28;20517;-81
2024/03/14 03:55:16;;;;;;;7.63;7.13;;;9.40;99.90;;;;;;5054258;28;20446;-82
2024/03/14 03:57:46;;;;;;;8.70;8.00;;;9.40;99.90;;;;;;5058391;28;20951;-81
2024/03/14 04:03:07;;;;;;;9.53;8.70;;;9.40;1.00;;;;;;5057823;28;20460;-82
2024/03/14 04:05:36;;;;;;;9.30;8.60;;;9.40;1.00;;;;;;5052319;28;20496;-82
2024/03/14 04:08:05;;;;;;;9.60;8.87;;;9.30;1.00;;;;;;5058571;28;20555;-81
2024/03/14 04:10:33;;;;;;;10.50;9.70;;;9.30;99.90;;;;;;5049272;28;20465;-81
2024/03/14 04:13:04;;;;;;;10.77;9.87;;;9.20;99.90;;;;;;5054033;28;20906;-81
2024/03/14 04:15:33;;;;;;;10.50;9.50;;;9.20;1.00;;;;;;5059396;28;20444;-80
2024/03/14 04:18:05;;;;;;;10.13;9.27;;;9.30;1.00;;;;;;5055129;28;21005;-81
2024/03/14 04:20:37;;;;;;;12.07;10.97;;;9.30;1.00;;;;;;5053947;28;20480;-80
2024/03/14 04:23:06;;;;;;;10.67;9.67;;;9.30;1.00;;;;;;5062139;28;20440;-80
2024/03/14 04:25:35;;;;;;;11.63;10.57;;;9.30;99.90;;;;;;5055693;28;20445;-80
2024/03/14 04:28:07;;;;;;;10.80;9.80;;;9.30;21.20;;;;;;5050699;28;20452;-80
2024/03/14 04:30:36;;;;;;;11.67;10.67;;;9.30;96.50;;;;;;5068705;28;20493;-80
2024/03/14 04:33:05;;;;;;;13.27;11.90;;;9.40;99.90;;;;;;5050520;28;20469;-80
2024/03/14 04:35:35;;;;;;;11.90;10.80;;;9.40;35.70;;;;;;5053340;28;20461;-79
2024/03/14 04:38:03;;;;;;;12.57;11.47;;;9.40;1.00;;;;;;5050689;28;20508;-81
2024/03/14 04:40:32;;;;;;;12.33;11.17;;;9.40;1.00;;;;;;5051679;28;20577;-81
2024/03/14 04:43:04;;;;;;;13.23;12.23;;;9.40;1.00;;;;;;5054668;28;20795;-79
2024/03/14 04:45:32;;;;;;;12.47;11.27;;;9.40;1.00;;;;;;5037922;28;20458;-81
2024/03/14 04:48:04;;;;;;;11.80;10.70;;;9.40;1.00;;;;;;5046285;28;20864;-80
2024/03/14 04:50:33;;;;;;;13.80;11.80;;;9.40;1.00;;;;;;5053912;28;20575;-82
2024/03/14 04:53:01;;;;;;;11.90;10.70;;;9.30;99.90;;;;;;5053345;28;20771;-79
2024/03/14 04:55:29;;;;;;;11.83;10.73;;;9.50;99.90;;;;;;5054209;28;20467;-81
2024/03/14 04:57:58;;;;;;;13.13;11.83;;;9.50;1.00;;;;;;5051918;28;20544;-80
2024/03/14 05:00:27;;;;;;;12.50;11.30;;;9.40;33.00;;;;;;5031951;28;20483;-83
2024/03/14 05:02:56;;;;;;;12.47;11.37;;;9.30;99.90;;;;;;5051414;28;20450;-83
2024/03/14 05:05:25;;;;;;;13.43;12.07;;;9.30;1.00;;;;;;5050021;28;20459;-81
2024/03/14 05:07:54;;;;;;;11.57;10.50;;;9.30;1.00;;;;;;5052782;28;20456;-82
2024/03/14 05:10:23;;;;;;;12.40;11.10;;;9.30;99.90;;;;;;5054917;28;22392;-83
2024/03/14 05:12:52;;;;;;;12.77;11.57;;;9.20;6.50;;;;;;5054201;28;20468;-82
2024/03/14 05:15:21;;;;;;;13.37;12.17;;;9.20;99.90;;;;;;5049837;28;20463;-80
2024/03/14 05:17:50;;;;;;;12.87;11.60;;;9.30;99.90;;;;;;5059664;28;20461;-86
2024/03/14 05:20:19;;;;;;;15.20;13.90;;;9.30;99.90;;;;;;5041854;28;20486;-85
2024/03/14 05:22:48;;;;;;;13.03;11.60;;;9.30;85.70;;;;;;5054265;28;20462;-81
2024/03/14 05:25:16;;;;;;;13.37;12.03;;;9.40;1.00;;;;;;5056334;28;20513;-81
2024/03/14 05:27:49;;;;;;;13.47;12.07;;;9.30;99.90;;;;;;5055258;28;20993;-82
2024/03/14 05:30:19;;;;;;;13.30;11.83;;;9.40;1.00;;;;;;5052785;28;20917;-82
2024/03/14 05:32:48;;;;;;;14.03;12.73;;;9.40;99.90;;;;;;5034673;28;20873;-83
2024/03/14 05:35:18;;;;;;;13.40;12.13;;;9.30;11.40;;;;;;5048959;28;20515;-82
2024/03/14 05:37:46;;;;;;;12.90;11.60;;;9.30;99.90;;;;;;5051077;28;20454;-79
2024/03/14 05:40:15;;;;;;;14.97;12.80;;;9.30;44.40;;;;;;5057339;28;20478;-81
2024/03/14 05:42:43;;;;;;;13.93;12.50;;;9.30;99.90;;;;;;5064087;28;20554;-80
2024/03/14 05:45:13;;;;;;;12.00;10.80;;;9.40;1.00;;;;;;5052534;28;20459;-81
2024/03/14 05:47:42;;;;;;;13.37;12.23;;;9.40;99.90;;;;;;5056330;28;20457;-83
2024/03/14 05:50:11;;;;;;;17.13;14.30;;;9.40;99.90;;;;;;5058574;28;20481;-82
2024/03/14 05:52:40;;;;;;;13.17;11.93;;;9.40;99.90;;;;;;5055654;28;21011;-79
2024/03/14 05:55:11;;;;;;;12.67;11.47;;;9.50;1.00;;;;;;5057178;28;20470;-82
2024/03/14 05:57:39;;;;;;;13.83;12.43;;;9.50;99.90;;;;;;5080858;28;20459;-80
2024/03/14 06:00:11;;;;;;;12.50;11.30;;;9.50;99.90;;;;;;5057620;28;20476;-82
2024/03/14 06:02:40;;;;;;;13.90;12.53;;;9.50;99.90;;;;;;5058940;28;20940;-83
2024/03/14 06:05:09;;;;;;;13.20;11.90;;;9.50;99.90;;;;;;5053228;28;20465;-81
2024/03/14 06:07:39;;;;;;;13.80;12.40;;;9.50;1.00;;;;;;5072493;28;20447;-82
2024/03/14 06:10:09;;;;;;;13.07;11.83;;;9.60;1.00;;;;;;5047552;28;20478;-81
2024/03/14 06:12:38;;;;;;;12.03;10.80;;;9.60;1.00;;;;;;5059477;28;20466;-79
2024/03/14 06:15:08;;;;;;;16.40;13.50;;;9.60;1.00;;;;;;5061575;28;20447;-82
2024/03/14 06:17:38;;;;;;;13.50;12.20;;;9.60;99.90;;;;;;5056259;28;20986;-81
2024/03/14 06:20:09;;;;;;;14.50;12.00;;;9.50;46.10;;;;;;5029267;28;20479;-78
2024/03/14 06:22:39;;;;;;;13.60;12.30;;;9.40;1.00;;;;;;5054875;28;20439;-80
2024/03/14 06:25:10;;;;;;;14.17;12.73;;;9.40;1.00;;;;;;5071924;28;20495;-83
2024/03/14 06:27:39;;;;;;;15.37;13.77;;;9.40;1.00;;;;;;5031377;28;20439;-82
2024/03/14 06:30:11;;;;;;;12.90;11.70;;;9.40;1.00;;;;;;5051931;28;20499;-82
2024/03/14 06:32:45;;;;;;;14.57;13.07;;;9.50;1.00;;;;;;5064650;28;20557;-80
2024/03/14 06:35:15;;;;;;;14.80;13.30;;;9.50;1.00;;;;;;5062000;28;20546;-81
2024/03/14 06:37:44;;;;;;;11.70;10.70;;;9.50;99.90;;;;;;5063635;28;20454;-81
2024/03/14 06:40:15;;;;;;;13.20;11.97;;;9.50;99.90;;;;;;5045828;28;20531;-81
2024/03/14 06:42:45;;;;;;;12.77;11.53;;;9.60;1.00;;;;;;5055476;28;20453;-80
2024/03/14 06:45:14;;;;;;;14.47;13.00;;;9.60;1.00;;;;;;5059676;28;20431;-83
2024/03/14 06:47:45;;;;;;;14.73;13.13;;;9.60;99.90;;;;;;5056753;28;20442;-82
2024/03/14 06:50:14;;;;;;;13.50;12.30;;;9.60;1.00;;;;;;5054665;28;20494;-82
2024/03/14 06:52:43;;;;;;;14.43;12.93;;;9.60;70.50;;;;;;5060528;28;20446;-80
2024/03/14 06:55:13;;;;;;;13.03;11.63;;;9.60;1.00;;;;;;5058828;28;20531;-81
2024/03/14 06:57:45;;;;;;;13.47;12.07;;;9.70;1.00;;;;;;5055407;28;20480;-82
2024/03/14 07:00:16;;;;;;;13.00;11.20;;;9.60;1.00;;;;;;5056232;28;20512;-80
2024/03/14 07:02:45;;;;;;;13.93;12.50;;;9.60;99.90;;;;;;5065156;28;20514;-81
2024/03/14 07:05:15;;;;;;;13.60;12.27;;;9.60;99.90;;;;;;5064181;28;20459;-83
2024/03/14 07:07:45;;;;;;;11.53;10.63;;;9.60;99.90;;;;;;5057463;28;20456;-81
2024/03/14 07:10:14;;;;;;;11.87;10.70;;;9.60;1.00;;;;;;5063425;28;20470;-80
2024/03/14 07:12:45;;;;;;;12.07;10.97;;;9.60;1.00;;;;;;5062521;28;20465;-81
2024/03/14 07:15:15;;;;;;;13.57;12.10;;;9.60;1.00;;;;;;5059688;28;20527;-81
2024/03/14 07:17:43;;;;;;;12.30;11.10;;;9.60;99.90;;;;;;5061041;28;20459;-81
2024/03/14 07:20:18;;;;;;;11.00;10.10;;;9.60;99.90;;;;;;5059140;28;20552;-81
2024/03/14 07:22:47;;;;;;;11.97;10.97;;;9.70;99.90;;;;;;5062823;28;21029;-81
2024/03/14 07:25:17;;;;;;;12.43;11.23;;;9.70;1.00;;;;;;5058029;28;20442;-80
2024/03/14 07:27:46;;;;;;;13.30;12.00;;;9.70;1.00;;;;;;5056141;28;20442;-80
2024/03/14 07:30:15;;;;;;;12.63;11.43;;;9.80;99.90;;;;;;5053582;28;20557;-82
2024/03/14 07:32:45;;;;;;;11.00;10.07;;;9.80;99.90;;;;;;5055615;28;21207;-83
2024/03/14 07:35:14;;;;;;;13.43;12.13;;;9.80;99.90;;;;;;5057289;28;20470;-81
2024/03/14 07:37:47;;;;;;;11.80;10.73;;;9.80;99.90;;;;;;5058229;28;20461;-80
2024/03/14 07:40:17;;;;;;;12.43;11.33;;;9.90;99.90;;;;;;5048525;28;20510;-81
2024/03/14 07:42:47;;;;;;;11.53;10.53;;;9.90;99.90;;;;;;5064064;28;20440;-81
2024/03/14 07:45:17;;;;;;;12.30;11.10;;;9.90;1.00;;;;;;5058052;28;21162;-82
2024/03/14 07:47:52;;;;;;;12.93;11.70;;;10.00;99.90;;;;;;5053526;28;20479;-81
2024/03/14 07:50:22;;;;;;;10.73;9.87;;;10.00;99.90;;;;;;5055458;28;20497;-81
2024/03/14 07:52:54;;;;;;;11.17;10.27;;;10.10;1.00;;;;;;5051069;28;20527;-80
2024/03/14 07:55:22;;;;;;;11.27;10.30;;;10.20;99.90;;;;;;5057224;28;20483;-83
2024/03/14 07:57:51;;;;;;;11.60;10.60;;;10.20;99.90;;;;;;5056357;28;20456;-82
2024/03/14 08:00:22;;;;;;;10.53;9.63;;;10.20;1.00;;;;;;5061772;28;20477;-84
2024/03/14 08:02:55;;;;;;;11.70;10.70;;;10.30;99.90;;;;;;5054412;28;20496;-82
2024/03/14 08:05:31;;;;;;;10.80;9.90;;;10.50;1.00;;;;;;5046617;28;20435;-82
2024/03/14 08:08:02;;;;;;;11.87;10.90;;;10.50;1.00;;;;;;5055731;28;20463;-82
2024/03/14 08:10:47;;;;;;;11.13;10.27;;;10.60;43.70;;;;;;5059501;28;20545;-82
2024/03/14 08:13:20;;;;;;;11.43;10.43;;;10.80;1.00;;;;;;5055250;28;20461;-82
2024/03/14 08:15:53;;;;;;;11.67;10.70;;;10.90;99.90;;;;;;5061882;28;20450;-81
2024/03/14 08:18:23;;;;;;;10.57;9.80;;;11.00;99.90;;;;;;5056536;28;20458;-82
2024/03/14 08:20:55;;;;;;;11.17;10.07;;;11.00;76.70;;;;;;5062320;28;20484;-80
2024/03/14 08:23:27;;;;;;;10.20;9.50;;;11.10;1.00;;;;;;5061132;28;20821;-82
2024/03/14 08:25:56;;;;;;;11.27;10.47;;;11.10;1.00;;;;;;5055647;28;20458;-82
2024/03/14 08:28:24;;;;;;;9.93;9.23;;;11.20;1.00;;;;;;5056364;28;20469;-84
2024/03/14 08:30:53;;;;;;;10.93;10.07;;;11.30;1.00;;;;;;5061103;28;20550;-84
2024/03/14 08:33:23;;;;;;;10.00;9.30;;;11.50;1.00;;;;;;5040953;28;20628;-82
2024/03/14 08:35:53;;;;;;;10.17;9.50;;;11.70;1.00;;;;;;5060438;28;20553;-85
2024/03/14 08:38:22;;;;;;;9.90;9.20;;;12.00;99.90;;;;;;5061507;28;20444;-81
2024/03/14 08:40:51;;;;;;;11.07;10.17;;;12.50;99.90;;;;;;5062705;28;20476;-82
2024/03/14 08:43:20;;;;;;;10.30;9.60;;;12.90;99.90;;;;;;5059268;28;20461;-83
2024/03/14 08:45:50;;;;;;;9.80;9.13;;;13.20;17.40;;;;;;5043696;28;20560;-81
2024/03/14 08:48:21;;;;;;;9.70;9.10;;;13.60;1.00;;;;;;5056069;28;20463;-81
2024/03/14 08:50:50;;;;;;;9.40;8.80;;;13.90;1.00;;;;;;5062641;28;20478;-82
2024/03/14 08:53:18;;;;;;;9.73;9.13;;;14.20;1.00;;;;;;5061712;28;20451;-81
2024/03/14 08:55:52;;;;;;;9.37;8.77;;;14.40;1.00;;;;;;5062566;28;20534;-80
2024/03/14 08:58:21;;;;;;;8.67;8.07;;;14.60;99.90;;;;;;5058902;28;20939;-81
2024/03/14 09:00:50;;;;;;;8.67;8.27;;;14.80;99.90;;;;;;5051042;28;20484;-82
2024/03/14 09:03:18;;;;;;;8.60;8.10;;;15.10;99.90;;;;;;5057631;28;20477;-82
2024/03/14 09:05:48;;;;;;;8.40;7.80;;;15.30;99.90;;;;;;5059969;28;20458;-81
2024/03/14 09:08:18;;;;;;;8.53;8.03;;;15.50;99.90;;;;;;5058134;28;20450;-82
2024/03/14 09:10:47;;;;;;;7.47;7.07;;;15.80;99.90;;;;;;5042205;28;20484;-81
2024/03/14 09:13:16;;;;;;;7.23;6.93;;;15.90;99.90;;;;;;5056289;28;20551;-82
2024/03/14 09:15:44;;;;;;;7.30;6.90;;;16.10;99.90;;;;;;5057211;28;20479;-79
2024/03/14 09:18:15;;;;;;;6.43;6.13;;;16.20;99.90;;;;;;5052150;28;21513;-81
2024/03/14 09:20:48;;;;;;;7.87;7.37;;;16.20;99.90;;;;;;5059343;28;20479;-82
2024/03/14 09:23:19;;;;;;;6.90;6.50;;;16.00;99.90;;;;;;5058003;28;20453;-82
2024/03/14 09:25:49;;;;;;;6.87;6.47;;;16.00;99.90;;;;;;5056648;28;20459;-81
2024/03/14 09:28:17;;;;;;;6.60;6.30;;;15.90;99.90;;;;;;5054083;28;20457;-82
2024/03/14 09:30:45;;;;;;;6.53;6.23;;;15.50;99.90;;;;;;5058276;28;21075;-82
2024/03/14 09:33:15;;;;;;;6.70;6.30;;;15.20;99.90;;;;;;5052986;28;20476;-81
2024/03/14 09:35:46;;;;;;;6.60;6.10;;;14.90;99.90;;;;;;5054892;28;20467;-81
2024/03/14 09:38:15;;;;;;;6.40;6.10;;;15.00;99.90;;;;;;5057400;28;21150;-83
2024/03/14 09:40:44;;;;;;;7.23;6.83;;;15.10;99.90;;;;;;5056108;28;20475;-83
2024/03/14 09:43:14;;;;;;;6.77;6.17;;;15.30;99.90;;;;;;5052587;28;20563;-82
2024/03/14 09:45:44;;;;;;;7.03;6.63;;;15.50;99.90;;;;;;5058505;28;21037;-81
2024/03/14 09:48:13;;;;;;;6.57;6.23;;;15.80;99.90;;;;;;5052244;28;20454;-82
2024/03/14 09:50:41;;;;;;;6.10;5.70;;;16.30;99.90;;;;;;5056138;28;20481;-82
2024/03/14 09:53:14;;;;;;;5.40;5.10;;;16.70;99.90;;;;;;5056468;28;20515;-80
2024/03/14 09:55:43;;;;;;;5.23;5.03;;;16.90;99.90;;;;;;5056997;28;20881;-81
2024/03/14 09:58:14;;;;;;;5.40;5.20;;;17.10;99.90;;;;;;5052675;28;20550;-83
2024/03/14 10:00:43;;;;;;;4.90;4.60;;;17.40;99.90;;;;;;5039856;28;20519;-82
2024/03/14 10:03:13;;;;;;;4.30;4.20;;;17.90;99.90;;;;;;5051729;28;20468;-81
2024/03/14 10:05:41;;;;;;;4.20;4.00;;;18.30;99.90;;;;;;5057559;28;20451;-84
2024/03/14 10:08:11;;;;;;;4.87;4.60;;;18.70;99.90;;;;;;5051299;28;20457;-83
2024/03/14 10:10:40;;;;;;;4.83;4.63;;;18.60;99.90;;;;;;5049547;28;20479;-83
2024/03/14 10:13:10;;;;;;;3.80;3.70;;;18.60;99.90;;;;;;5043484;28;20456;-86
2024/03/14 10:15:39;;;;;;;3.73;3.53;;;18.20;99.90;;;;;;5059092;28;20494;-83
2024/03/14 10:18:09;;;;;;;4.47;4.27;;;18.00;99.90;;;;;;5053234;28;20948;-83
2024/03/14 10:20:38;;;;;;;3.90;3.70;;;18.00;99.90;;;;;;5051032;28;20503;-84
2024/03/14 10:23:07;;;;;;;3.67;3.57;;;18.00;99.90;;;;;;5057164;28;20923;-84
2024/03/14 10:25:38;;;;;;;4.17;3.97;;;17.80;99.90;;;;;;5035038;28;20856;-82
2024/03/14 10:28:14;;;;;;;3.70;3.60;;;17.90;99.90;;;;;;5062061;28;20452;-83
2024/03/14 10:30:51;;;;;;;3.47;3.37;;;18.10;99.90;;;;;;5062406;28;20469;-85
2024/03/14 10:33:21;;;;;;;3.20;3.10;;;18.10;99.90;;;;;;5047705;28;20541;-83
2024/03/14 10:35:55;;;;;;;2.87;2.77;;;17.80;99.90;;;;;;5062654;28;20483;-83
2024/03/14 10:38:27;;;;;;;3.10;3.00;;;17.50;99.90;;;;;;5059475;28;20560;-83
2024/03/14 10:40:57;;;;;;;2.87;2.77;;;17.40;99.90;;;;;;5037362;28;20556;-80
2024/03/14 10:43:27;;;;;;;2.33;2.23;;;17.30;99.90;;;;;;5056748;28;20442;-81
2024/03/14 10:45:56;;;;;;;2.80;2.70;;;17.20;99.90;;;;;;5060809;28;20442;-81
2024/03/14 10:48:25;;;;;;;2.50;2.40;;;17.10;99.90;;;;;;5062478;28;20547;-82
2024/03/14 10:50:56;;;;;;;2.40;2.30;;;17.30;99.90;;;;;;5060703;28;20470;-80
2024/03/14 10:53:25;;;;;;;2.93;2.83;;;17.30;99.90;;;;;;5074181;28;20532;-79
2024/03/14 10:55:54;;;;;;;1.97;1.90;;;17.50;99.90;;;;;;5058403;28;20490;-81
2024/03/14 10:58:25;;;;;;;2.20;2.10;;;17.70;99.90;;;;;;5056981;28;20494;-82
2024/03/14 11:00:54;;;;;;;2.20;2.10;;;17.80;99.90;;;;;;5058876;28;20470;-85
2024/03/14 11:03:22;;;;;;;2.33;2.13;;;17.70;99.90;;;;;;5074181;28;20463;-81
2024/03/14 11:05:51;;;;;;;2.60;2.50;;;17.70;99.90;;;;;;5061183;28;20461;-80
2024/03/14 11:08:20;;;;;;;2.20;2.10;;;17.90;99.90;;;;;;5059659;28;20461;-82
2024/03/14 11:10:49;;;;;;;2.17;2.07;;;18.20;99.90;;;;;;5061793;28;20509;-80
2024/03/14 11:13:17;;;;;;;2.30;2.20;;;18.10;99.90;;;;;;5061588;28;20454;-81
2024/03/14 11:15:46;;;;;;;2.07;2.00;;;18.00;99.90;;;;;;5057534;28;20929;-81
2024/03/14 11:18:16;;;;;;;2.20;2.10;;;18.00;99.90;;;;;;5056374;28;20469;-80
2024/03/14 11:20:45;;;;;;;2.40;2.30;;;18.00;99.90;;;;;;5060202;28;20463;-83
2024/03/14 11:23:14;;;;;;;2.77;2.60;;;17.90;99.90;;;;;;5061888;28;20460;-83
2024/03/14 11:25:43;;;;;;;2.50;2.40;;;17.90;99.90;;;;;;5042089;28;20485;-82
2024/03/14 11:28:12;;;;;;;2.20;2.10;;;18.00;99.90;;;;;;5058396;28;20817;-81
2024/03/14 11:30:42;;;;;;;2.20;2.10;;;17.80;99.90;;;;;;5057167;28;20486;-81
2024/03/14 11:33:11;;;;;;;1.90;1.90;;;17.90;99.90;;;;;;5058224;28;20442;-81
2024/03/14 11:35:43;;;;;;;2.20;2.10;;;17.90;99.90;;;;;;5041710;28;21026;-80
2024/03/14 11:38:33;;;;;;;2.20;2.10;;;17.80;99.90;;;;;;5061026;28;20459;-82
2024/03/14 11:41:02;;;;;;;2.37;2.27;;;17.90;99.90;;;;;;5070558;28;20553;-81
2024/03/14 11:43:33;;;;;;;1.80;1.80;;;18.00;99.90;;;;;;5059572;28;20457;-82
2024/03/14 11:46:04;;;;;;;1.80;1.80;;;17.80;99.90;;;;;;5062107;28;20507;-80
2024/03/14 11:48:33;;;;;;;2.10;2.00;;;17.90;99.90;;;;;;5057631;28;20534;-83
2024/03/14 11:51:02;;;;;;;2.00;2.00;;;17.80;99.90;;;;;;5055857;28;20519;-80
2024/03/14 11:53:31;;;;;;;2.07;1.97;;;17.80;99.90;;;;;;5055849;28;20470;-82
2024/03/14 11:56:03;;;;;;;1.97;1.87;;;17.80;99.90;;;;;;5054534;28;20523;-82
2024/03/14 11:58:41;;;;;;;1.83;1.77;;;17.70;99.90;;;;;;5059611;28;20487;-83
2024/03/14 12:01:13;;;;;;;1.77;1.77;;;17.60;99.90;;;;;;5072904;28;20475;-82
2024/03/14 12:03:51;;;;;;;1.70;1.70;;;17.60;99.90;;;;;;5062775;28;20453;-83
2024/03/14 12:06:20;;;;;;;2.33;2.23;;;17.60;99.90;;;;;;5058224;28;20476;-82
2024/03/14 12:08:51;;;;;;;1.70;1.63;;;17.70;99.90;;;;;;5058896;28;20507;-82
2024/03/14 12:11:21;;;;;;;1.80;1.80;;;17.70;99.90;;;;;;5059641;28;20465;-81
2024/03/14 12:13:53;;;;;;;1.70;1.70;;;17.50;99.90;;;;;;5058867;28;20458;-83
2024/03/14 12:16:22;;;;;;;1.77;1.77;;;17.60;99.90;;;;;;5063052;28;20561;-82
2024/03/14 12:18:51;;;;;;;1.60;1.60;;;17.70;99.90;;;;;;5059674;28;20454;-82
2024/03/14 12:21:20;;;;;;;2.20;2.10;;;17.70;99.90;;;;;;5061818;28;20463;-83
2024/03/14 12:23:54;;;;;;;1.67;1.67;;;17.80;99.90;;;;;;5062126;28;20448;-82
2024/03/14 12:26:24;;;;;;;1.70;1.60;;;17.80;99.90;;;;;;5057996;28;20474;-81
2024/03/14 12:28:54;;;;;;;1.80;1.50;;;17.70;99.90;;;;;;5053831;28;20548;-83
2024/03/14 12:31:23;;;;;;;1.63;1.63;;;17.80;99.90;;;;;;5051326;28;20912;-82
2024/03/14 12:33:52;;;;;;;1.70;1.70;;;17.80;99.90;;;;;;5062623;28;20467;-83
2024/03/14 12:36:19;;;;;;;1.63;1.60;;;17.80;99.90;;;;;;5054951;28;20481;-82
2024/03/14 12:38:51;;;;;;;1.30;1.30;;;17.70;99.90;;;;;;5059496;28;20447;-83
2024/03/14 12:41:20;;;;;;;1.37;1.37;;;17.70;99.90;;;;;;5053920;28;20482;-81
2024/03/14 12:43:48;;;;;;;1.40;1.40;;;17.80;99.90;;;;;;5053322;28;20567;-83
2024/03/14 12:46:19;;;;;;;1.40;1.40;;;17.80;99.90;;;;;;5072447;28;20521;-81
2024/03/14 12:48:47;;;;;;;1.40;1.40;;;17.90;99.90;;;;;;5054107;28;20451;-81
2024/03/14 12:51:19;;;;;;;1.40;1.40;;;17.90;99.90;;;;;;5048336;28;20503;-81
2024/03/14 12:53:55;;;;;;;1.33;1.33;;;18.00;99.90;;;;;;5067024;28;20557;-82
2024/03/14 12:56:24;;;;;;;1.30;1.30;;;18.00;99.90;;;;;;5051495;28;20477;-81
2024/03/14 12:58:52;;;;;;;1.50;1.50;;;18.00;99.90;;;;;;5049315;28;20448;-81
2024/03/14 13:01:21;;;;;;;1.30;1.30;;;18.00;99.90;;;;;;5066818;28;21226;-81
2024/03/14 13:03:50;;;;;;;1.30;1.30;;;18.00;99.90;;;;;;5056566;28;20447;-82
2024/03/14 13:06:23;;;;;;;1.50;1.50;;;18.00;99.90;;;;;;5053860;28;20952;-82